Winnipeg / James Armstrong Richardson International Airport

CYWG · Manitoba, Canada

METAR historie CYWG · Winnipeg / James Armstrong Richardson International Airport

Hieronder zie je METAR's van de afgelopen dagen. Kies een jaar om door oudere METAR's te bladeren, vanaf het jaar 2007.

15 juni 2024

Tijd Code Weer Temp. Zicht Plafond Wind METAR/SPECI
22:00
V
21 °C 15 mi 15.000 ft 180° 180° 14 kt METAR CYWG 160300Z 18014KT 15SM FEW065CB BKN150 BKN250 21/16 A2952 RMK CB1AC4CI2 CB S SLP999 DENSITY ALT 2200FT
21:00
V
24 °C 15 mi 15.000 ft 170° 170° 24 - 33 kt METAR CYWG 160200Z 17024G33KT 15SM FEW065TCU BKN150 BKN210 24/16 A2952 RMK TCU2AC4CI1 SLP997 DENSITY ALT 2600FT
20:00
V
26 °C 15 mi 4.900 ft 180° 180° 20 - 29 kt METAR CYWG 160100Z 18020G29KT 15SM BKN049 BKN056TCU OVC170 26/15 A2955 RMK SC5TCU1AC2 SLP008 DENSITY ALT 2700FT
19:00
V
27 °C 15 mi 4.700 ft 170° 170° 17 - 23 kt METAR CYWG 160000Z 17017G23KT 15SM BKN047 OVC054 27/17 A2955 RMK SC7SC1 SLP007 DENSITY ALT 2800FT
18:00
V
27 °C 15 mi 4.700 ft 180° 180° 12 - 20 kt METAR CYWG 152300Z 18012G20KT 15SM BKN047 OVC070 27/18 A2956 RMK SC7AC1 AC TR SLP013 DENSITY ALT 2800FT
17:00
V
26 °C 15 mi 4.900 ft 180° 180° 15 - 20 kt METAR CYWG 152200Z 18015G20KT 15SM OVC049 26/17 A2959 RMK SC8 SLP023 DENSITY ALT 2700FT
16:00
V
26 °C 15 mi 4.500 ft 180° 180° 17 - 25 kt METAR CYWG 152100Z 18017G25KT 15SM OVC045 26/18 A2960 RMK SC8 SLP027 DENSITY ALT 2600FT
15:00
V
27 °C 15 mi 4.500 ft 180° 180° 17 - 28 kt METAR CYWG 152000Z 18017G28KT 15SM BKN045 BKN100 27/17 A2963 RMK SC6ACC1 SLP034 DENSITY ALT 2800FT
14:00
V
27 °C 15 mi - 180° 180° 20 - 27 kt METAR CYWG 151900Z 18020G27KT 15SM FEW041 FEW100 SCT250 27/17 A2963 RMK SC1ACC1CC2 SLP037 DENSITY ALT 2700FT
13:00
V
26 °C 15 mi - 190° 190° 15 - 24 kt METAR CYWG 151800Z 19015G24KT 15SM FEW055 FEW120 SCT250 26/17 A2966 RMK CF1AC1CI3 CF TR CONTRAILS SLP045 DENSITY ALT 2600FT
12:00
V
25 °C 15 mi 25.000 ft 180° 180° 17 - 26 kt METAR CYWG 151700Z 18017G26KT 15SM FEW120 BKN250 25/15 A2969 RMK AC1CI5 AC TR CONTRAILS SLP055 DENSITY ALT 2400FT
11:00
V
24 °C 15 mi - 160° 160° 17 - 27 kt METAR CYWG 151600Z CCA 16017G27KT 15SM SCT250 24/15 A2970 RMK CI3 CONTRAILS SLP060 DENSITY ALT 2300FT
10:00
V
22 °C 15 mi - 160° 160° 16 kt METAR CYWG 151500Z 16016KT 15SM FEW070 SCT250 22/15 A2974 RMK AC1CI3 AC TR CONTRAILS SLP072 DENSITY ALT 2000FT
09:00
V
21 °C 15 mi - 150° 150° 14 - 24 kt METAR CYWG 151400Z 15014G24KT 15SM FEW069 FEW091 SCT250 21/15 A2975 RMK AC1AC2CI2 AC TR SLP077 DENSITY ALT 1900FT
08:00
V
19 °C 15 mi - 160° 160° 14 - 19 kt METAR CYWG 151300Z 16014G19KT 15SM SCT073 SCT250 19/14 A2979 RMK AC3CI1 CI TR SLP090 DENSITY ALT 1700FT
07:00
V
17 °C 15 mi - 150° 150° 11 kt METAR CYWG 151200Z 15011KT 15SM FEW160 FEW250 17/14 A2981 RMK AC1CI1 AC TR SLP098 DENSITY ALT 1400FT
06:00
V
16 °C 15 mi - 150° 150° 8 kt METAR CYWG 151100Z 15008KT 15SM FEW160 FEW250 16/14 A2983 RMK AC1CI1 AC TR CI TR SLP104 DENSITY ALT 1200FT
05:00
V
16 °C 15 mi - 160° 160° 9 kt METAR CYWG 151000Z 16009KT 15SM FEW160 FEW250 16/14 A2983 RMK AC1CI1 AC TR CI TR SLP105 DENSITY ALT 1200FT
04:00
V
16 °C 15 mi - 160° 160° 9 kt METAR CYWG 150900Z 16009KT 15SM FEW160 FEW230 16/14 A2984 RMK AC1CC1 AC TR CC TR SLP106 DENSITY ALT 1300FT
03:00
V
16 °C 15 mi - 170° 170° 8 kt METAR CYWG 150800Z 17008KT 15SM FEW160 SCT250 16/13 A2985 RMK AC1CI2 SLP110 DENSITY ALT 1200FT
02:00
V
16 °C 15 mi - 170° 170° 7 kt METAR CYWG 150700Z 17007KT 15SM FEW160 SCT250 16/13 A2985 RMK AC2CI2 SLP111 DENSITY ALT 1300FT
01:00
V
18 °C 15 mi - 220° 220° 7 kt METAR CYWG 150600Z 22007KT 15SM SCT250 18/13 A2986 RMK CI4 SLP114 DENSITY ALT 1500FT
00:00
V
20 °C 15 mi 25.000 ft 190° 190° 12 kt METAR CYWG 150500Z 19012KT 15SM FEW080 BKN250 20/12 A2986 RMK AC1CI5 AC TR SLP115 DENSITY ALT 1700FT

14 juni 2024

Tijd Code Weer Temp. Zicht Plafond Wind METAR/SPECI
23:00
V
20 °C 15 mi 25.000 ft 160° 160° 9 kt METAR CYWG 150400Z 16009KT 15SM FEW081 BKN250 20/13 A2985 RMK AC1CI5 SLP112 DENSITY ALT 1600FT
22:00
V
21 °C 15 mi 25.000 ft 150° 150° 7 kt METAR CYWG 150300Z 15007KT 15SM FEW081 BKN250 21/12 A2987 RMK AC1CI6 SLP119 DENSITY ALT 1700FT
21:00
V
22 °C 15 mi 24.000 ft 180° 180° 5 kt METAR CYWG 150200Z 18005KT 15SM FEW120 BKN240 22/12 A2988 RMK AC1CI7 AC TR CC ASOCTD SLP120 DENSITY ALT 1900FT
20:00
V
24 °C 15 mi 24.000 ft 180° 180° 5 kt METAR CYWG 150100Z 18005KT 15SM FEW065 FEW120 BKN240 24/12 A2988 RMK SC1AC2CI5 SC TR SLP122 DENSITY ALT 2100FT
19:00
V
25 °C 15 mi 24.000 ft 230° 230° 5 kt METAR CYWG 150000Z 23005KT 15SM FEW065 BKN240 25/12 A2990 RMK CU2CI5 SLP128 DENSITY ALT 2200FT
18:00
V
26 °C 15 mi 24.000 ft 220° 220° 5 kt METAR CYWG 142300Z 22005KT 200V290 15SM SCT065 BKN240 26/12 A2991 RMK SC4CI1 WSHFT 2220 SLP133 DENSITY ALT 2300FT
17:00
V
26 °C 15 mi 15.000 ft 190° 190° 8 kt METAR CYWG 142200Z 19008KT 180V270 15SM SCT062 BKN150 26/12 A2992 RMK CU4AC1 SLP137 DENSITY ALT 2300FT
16:00
V
26 °C 15 mi - 250° 250° 4 kt METAR CYWG 142100Z 25004KT 190V300 15SM SCT055 26/12 A2994 RMK CU4 SLP142 DENSITY ALT 2200FT
15:00
V
24 °C 15 mi - 270° 270° 7 kt METAR CYWG 142000Z 27007KT 170V300 15SM SCT055 24/12 A2995 RMK CU4 SLP146 DENSITY ALT 2100FT
14:00
V
25 °C 15 mi 5.000 ft 240° 240° 11 kt METAR CYWG 141900Z 24011KT 220V290 15SM BKN050 25/12 A2997 RMK CU5 SLP152 DENSITY ALT 2100FT
13:00
V
24 °C 15 mi - 250° 250° 8 kt METAR CYWG 141800Z 25008KT 200V280 15SM SCT045 24/11 A2998 RMK CU4 SLP158 DENSITY ALT 2000FT
12:00
V
23 °C 15 mi - 220° 220° 9 kt METAR CYWG 141700Z 22009KT 15SM FEW040 23/13 A2999 RMK CF2 SLP160 DENSITY ALT 1900FT
11:00
V
22 °C 15 mi - 210° 210° 11 - 16 kt METAR CYWG 141600Z 21011G16KT 15SM FEW030 FEW240 22/14 A3001 RMK CF1CI1 CI TR SLP165 DENSITY ALT 1700FT
10:00
V
21 °C 15 mi - 220° 220° 8 kt METAR CYWG 141500Z 22008KT 15SM SKC 21/13 A3002 RMK SLP168 DENSITY ALT 1600FT
09:00
V
18 °C 15 mi - 210° 210° 5 kt METAR CYWG 141400Z 21005KT 15SM SKC 18/13 A3002 RMK SLP169 DENSITY ALT 1300FT
08:00
V
17 °C 15 mi - 190° 190° 2 kt METAR CYWG 141300Z 19002KT 15SM FEW100 17/13 A3001 RMK AC1 AC TR SLP166 DENSITY ALT 1100FT
07:00
V
14 °C 15 mi - 220° 220° 3 kt METAR CYWG 141200Z 22003KT 15SM FEW100 14/13 A3001 RMK AC1 AC TR SLP166
06:00
V
12 °C 15 mi - 170° 170° 4 kt METAR CYWG 141100Z 17004KT 15SM FEW100 12/11 A3000 RMK AC1 AC TR SLP165
05:00
V
12 °C 15 mi - 170° 170° 5 kt METAR CYWG 141000Z 17005KT 15SM FEW100 12/10 A2999 RMK AC1 AC TR SLP161
04:00
V
12 °C 15 mi - 140° 140° 3 kt METAR CYWG 140900Z 14003KT 15SM FEW110 12/11 A2999 RMK AC1 AC TR SLP160
03:00
V
13 °C 15 mi - 230° 230° 2 kt METAR CYWG 140800Z 23002KT 15SM SKC 13/11 A2998 RMK SLP157
02:00
V
13 °C 15 mi - 270° 270° 4 kt METAR CYWG 140700Z 27004KT 15SM SKC 13/11 A2997 RMK SLP153
01:00
V
13 °C 15 mi - 280° 280° 3 kt METAR CYWG 140600Z 28003KT 15SM FEW100 FEW250 13/11 A2996 RMK AC1CC1 AC TR CC TR SLP151
00:00
V
14 °C 15 mi - 330° 330° 3 kt METAR CYWG 140500Z 33003KT 290V010 15SM FEW100 FEW250 14/12 A2995 RMK AC1CC1 CC TR SLP149

13 juni 2024

Tijd Code Weer Temp. Zicht Plafond Wind METAR/SPECI
23:00
V
14 °C 15 mi - 280° 280° 7 kt METAR CYWG 140400Z 28007KT 15SM FEW100 FEW250 14/12 A2995 RMK AC2CI1 CI TR SLP147
22:00
V
15 °C 15 mi - 300° 300° 4 kt METAR CYWG 140300Z 30004KT 15SM FEW110 FEW250 15/13 A2993 RMK AC1CI1 CI TR SLP142 DENSITY ALT 1000FT
21:00
V
18 °C 15 mi - 280° 280° 6 kt METAR CYWG 140200Z 28006KT 15SM FEW048 FEW100 18/12 A2992 RMK CU1AC1 CU TR SLP135 DENSITY ALT 1400FT
20:00
V
21 °C 15 mi - 300° 300° 5 kt METAR CYWG 140100Z 30005KT 15SM FEW048TCU FEW095 FEW110 FEW210 21/11 A2991 RMK TCU1AC1AC1CI1 TCU TR AC TR CI TR CU ASOCTD CONTRAILS SLP133 DENSITY ALT 1700FT
19:00
V
21 °C 15 mi - 300° 300° 6 kt METAR CYWG 140000Z 30006KT 15SM FEW045TCU FEW080 SCT095 21/11 A2990 RMK TCU1AC1AC1 SLP131 DENSITY ALT 1800FT
18:00
V
21 °C 15 mi - Var Var 3 kt METAR CYWG 132300Z VRB03KT 15SM FEW040CB FEW045TCU SCT057 SCT085 SCT230 21/10 A2990 RMK CB1TCU1SC2AC1CI1 CB TR CI TR SML CB NW HRZN STPD SLP129 DENSITY ALT 1700FT
17:00
V
21 °C 15 mi - 330° 330° 8 kt METAR CYWG 132200Z 33008KT 290V350 15SM FEW045CB FEW050 FEW070 FEW100 21/12 A2989 RMK CB1CU1AC1AC1 CB TR AC TR SML CB NW MOV E SLP126 DENSITY ALT 1800FT
16:00
V
20 °C 15 mi - 320° 320° 8 kt METAR CYWG 132100Z 32008KT 280V340 15SM FEW030TCU FEW065 FEW080 FEW100 20/13 A2988 RMK TCU1SC1AC1AC1 AC TR AC TR CU ASOCTD SLP122 DENSITY ALT 1600FT
15:00
V
17 °C 14 mi - 290° 290° 11 kt METAR CYWG 132000Z CCA 29011KT 14SM SCT030CB SCT045 SCT075 SCT200 17/13 A2988 RMK CB4SC1AC1CI1 SC TR AC TR CI TR OCNL-SHRA CB W SPRDG OHD MOV SLW SE SLP124 DENSITY ALT 1300FT
14:52
V
18 °C 13 mi 7.500 ft 290° 290° 11 kt METAR CYWG 131952Z 29011KT 270V360 13SM -SHRA SCT030CB SCT045 BKN075 18/13 A2988 RMK CB3SC1AC1 WSHFT 1946 CB W SPRDG OHD MOV VRY SLW SE SLP123 DENSITY ALT 1400FT
14:32
V
18 °C 14 mi 8.500 ft 010° 010° 8 kt METAR CYWG 131932Z 01008KT 14SM -SHRA FEW027CB SCT060 BKN085 18/13 A2987 RMK CB3SC2AC1 CB W AND OHD MOV SLW SE SLP119 DENSITY ALT 1400FT
14:00
V
19 °C 14 mi 6.000 ft 340° 340° 6 kt METAR CYWG 131900Z 34006KT 14SM VCSH SCT035TCU SCT045 BKN060 BKN085 19/12 A2985 RMK TCU3SC1SC1AC1 VCSH W - NW PSBL CB DVLPG SLP115 DENSITY ALT 1600FT
13:51
V
19 °C 14 mi 8.500 ft 340° 340° 7 kt METAR CYWG 131851Z 34007KT 14SM SCT033TCU SCT045 BKN085 19/12 A2985 RMK TCU3SC1AC3 OCNL-SHRA TCU ALQDS SLP114 DENSITY ALT 1500FT
13:37
V
18 °C 14 mi 3.500 ft 350° 350° 7 kt METAR CYWG 131837Z 35007KT 14SM -SHRA BKN035TCU BKN045 BKN085 18/12 A2985 RMK TCU5SC2AC1 AC TR SLP113 DENSITY ALT 1400FT
13:00
V
19 °C 15 mi - 350° 350° 6 kt METAR CYWG 131800Z 35006KT 310V050 15SM SCT030TCU SCT045 SCT080 19/12 A2983 RMK TCU3SC1AC1 AC TR DIST SH N - NE SLP107 DENSITY ALT 1600FT
12:00
V
18 °C 15 mi 6.700 ft 340° 340° 5 kt METAR CYWG 131700Z 34005KT 15SM SCT030TCU SCT045 BKN067 BKN082 BKN230 18/12 A2982 RMK TCU4SC1AC1AC1CI1 SC TR CI TR SLP102 DENSITY ALT 1500FT
11:00
V
17 °C 15 mi 26.000 ft 340° 340° 8 kt METAR CYWG 131600Z 34008KT 290V360 15SM SCT025TCU SCT057 SCT085 BKN260 17/12 A2980 RMK TCU3SC1AC1CI1 SC TR CB DVLPG DIST SW CU ASOCTD SLP097 DENSITY ALT 1400FT
10:00
M
16 °C 15 mi 2.000 ft 320° 320° 5 kt METAR CYWG 131500Z 32005KT 15SM BKN020TCU BKN070 16/13 A2979 RMK TCU5AC1 AC TR CIG VRB 15 - 25 CU ASOCTD SLP092 DENSITY ALT 1300FT
09:00
V
16 °C 15 mi 9.500 ft 320° 320° 9 kt METAR CYWG 131400Z 32009KT 15SM FEW010 SCT015 SCT075 BKN095 16/13 A2977 RMK CU1SC3ACC1AC1 CU TR SLP086 DENSITY ALT 1300FT
08:00
V
15 °C 15 mi - 290° 290° 8 - 15 kt METAR CYWG 131300Z 29008G15KT 15SM FEW084 FEW120 SCT230 15/12 A2975 RMK AC1AC1CI2 AC TR CC ASOCTD SLP081 DENSITY ALT 1100FT
07:00
V
12 °C 15 mi - 270° 270° 6 kt METAR CYWG 131200Z 27006KT 15SM FEW070 FEW120 FEW230 12/11 A2974 RMK AC1AC1CC1 CC TR SLP076
06:00
V
11 °C 15 mi 9.600 ft 270° 270° 8 kt METAR CYWG 131100Z 27008KT 15SM BKN096 BKN230 11/11 A2972 RMK AC6CC1 SLP069
05:00
V
11 °C 15 mi - 260° 260° 7 kt METAR CYWG 131000Z 26007KT 15SM FEW110 FEW250 11/11 A2970 RMK AC1CI1 SLP061
04:00
V
12 °C 15 mi - 250° 250° 11 kt METAR CYWG 130900Z 25011KT 15SM FEW120 12/12 A2970 RMK AC1 AC TR SLP061
03:00
V
12 °C 15 mi - 250° 250° 6 kt METAR CYWG 130800Z 25006KT 15SM SKC 12/12 A2968 RMK SLP056 DENSITY ALT 1000FT
02:00
V
12 °C 15 mi - 280° 280° 5 kt METAR CYWG 130700Z 28005KT 15SM FEW160 12/12 A2969 RMK AC1 SLP057 DENSITY ALT 1000FT
01:00
V
13 °C 15 mi - 260° 260° 6 kt METAR CYWG 130600Z 26006KT 15SM FEW150 13/13 A2969 RMK AC2 SLP058 DENSITY ALT 1100FT
Wijziging doorgeven